createdAt,value
2019-04-22T00:00:34.584Z,100024.16
2019-04-22T00:03:03.058Z,100029.34
2019-04-22T00:05:53.176Z,100023.20
2019-04-22T00:08:16.859Z,100024.83
2019-04-22T00:10:54.021Z,100018.84
2019-04-22T00:13:27.614Z,100015.20
2019-04-22T00:15:41.806Z,100014.91
2019-04-22T00:18:22.276Z,100017.01
2019-04-22T00:20:54.438Z,100012.63
2019-04-22T00:23:12.842Z,100011.69
2019-04-22T00:25:48.318Z,100004.64
2019-04-22T00:28:14.626Z,100003.17
2019-04-22T00:30:44.915Z,100002.95
2019-04-22T00:33:24.931Z,100000.39
2019-04-22T00:35:54.544Z,99996.77
2019-04-22T00:38:23.445Z,100004.34
2019-04-22T00:40:53.370Z,99990.16
2019-04-22T00:43:24.329Z,99998.30
2019-04-22T00:45:49.208Z,99990.60
2019-04-22T00:51:01.627Z,99988.86
2019-04-22T00:53:31.303Z,99985.92
2019-04-22T00:56:05.549Z,99984.59
2019-04-22T00:58:31.194Z,99977.31
2019-04-22T01:01:06.269Z,99978.84
2019-04-22T01:03:37.025Z,99985.13
2019-04-22T01:06:03.488Z,99981.75
2019-04-22T01:08:43.187Z,99976.32
2019-04-22T01:11:03.242Z,99977.63
2019-04-22T01:13:34.363Z,99969.36
2019-04-22T01:16:09.334Z,99974.14
2019-04-22T01:18:29.843Z,99976.45
2019-04-22T01:23:28.200Z,99964.59
2019-04-22T01:25:55.272Z,99961.53
2019-04-22T01:28:23.816Z,99962.55
2019-04-22T01:30:46.902Z,99959.39
2019-04-22T01:33:16.315Z,99954.28
2019-04-22T01:35:58.240Z,99950.84
2019-04-22T01:38:23.627Z,99952.73
2019-04-22T01:41:07.236Z,99949.55
2019-04-22T01:43:42.126Z,99953.13
2019-04-22T01:46:02.612Z,99957.98
2019-04-22T01:48:36.608Z,99947.98
2019-04-22T01:50:54.755Z,99944.44
2019-04-22T01:53:36.439Z,99950.85
2019-04-22T01:55:59.818Z,99947.98
2019-04-22T01:58:24.878Z,99951.09
2019-04-22T02:01:13.594Z,99947.05
2019-04-22T02:03:25.722Z,99943.69
2019-04-22T02:05:59.237Z,99944.87
2019-04-22T02:08:31.446Z,99943.83
2019-04-22T02:10:54.860Z,99944.83
2019-04-22T02:13:23.819Z,99933.32
2019-04-22T02:15:52.513Z,99936.14
2019-04-22T02:18:23.000Z,99931.59
2019-04-22T02:20:50.331Z,99936.38
2019-04-22T02:28:42.542Z,99929.08
2019-04-22T02:41:21.385Z,99918.47
2019-04-22T02:43:43.979Z,99916.64
2019-04-22T02:46:16.603Z,99912.83
2019-04-22T02:48:45.946Z,99907.23
2019-04-22T02:51:06.176Z,99913.27
2019-04-22T02:53:59.327Z,99904.90
2019-04-22T02:56:04.938Z,99906.83
2019-04-22T02:58:41.170Z,99902.31
2019-04-22T03:01:06.011Z,99903.89
2019-04-22T03:03:45.850Z,99901.39
2019-04-22T03:06:19.333Z,99897.80
2019-04-22T03:08:23.962Z,99902.70
2019-04-22T03:13:32.447Z,99887.16
2019-04-22T03:16:01.142Z,99879.37
2019-04-22T03:18:35.845Z,99880.59
2019-04-22T03:21:00.115Z,99874.44
2019-04-22T03:23:42.864Z,99868.23
2019-04-22T03:28:30.985Z,99864.05
2019-04-22T03:32:16.728Z,99863.97
2019-04-22T03:42:00.584Z,99861.53
2019-04-22T03:44:26.129Z,99868.48
2019-04-22T03:46:53.362Z,99860.83
2019-04-22T03:49:29.056Z,99856.69
2019-04-22T03:51:56.732Z,99851.86
2019-04-22T03:54:35.828Z,99852.38
2019-04-22T03:57:18.376Z,99854.66
2019-04-22T03:59:28.663Z,99854.75
2019-04-22T04:04:15.462Z,99848.80
2019-04-22T04:06:50.188Z,99848.11
2019-04-22T04:09:16.872Z,99850.16
2019-04-22T04:11:55.816Z,99844.56
2019-04-22T04:14:27.028Z,99846.41
2019-04-22T04:16:50.447Z,99846.20
2019-04-22T04:19:13.828Z,99843.61
2019-04-22T04:21:41.383Z,99839.34
2019-04-22T04:24:29.125Z,99844.16
2019-04-22T04:41:52.115Z,99836.00
2019-04-22T04:44:15.182Z,99839.19
2019-04-22T04:46:47.339Z,99837.17
2019-04-22T04:54:23.423Z,99835.42
2019-04-22T04:56:40.367Z,99835.05
2019-04-22T04:59:17.301Z,99832.53
2019-04-22T05:01:35.170Z,99833.11
2019-04-22T05:16:54.661Z,99835.70
2019-04-22T05:22:05.142Z,99836.16
2019-04-22T05:24:36.680Z,99831.01
2019-04-22T05:27:15.059Z,99826.41
2019-04-22T05:29:54.196Z,99823.36
2019-04-22T05:32:01.458Z,99821.12
2019-04-22T05:34:35.078Z,99824.42
2019-04-22T05:37:00.949Z,99820.39
2019-04-22T05:39:31.075Z,99827.16
2019-04-22T05:42:03.671Z,99825.61
2019-04-22T05:44:29.559Z,99825.03
2019-04-22T05:46:52.815Z,99825.70
2019-04-22T05:51:55.444Z,99815.96
2019-04-22T05:54:27.638Z,99809.30
2019-04-22T05:56:47.186Z,99807.53
2019-04-22T05:59:25.002Z,99811.88
2019-04-22T06:02:00.735Z,99802.89
2019-04-22T06:04:25.685Z,99810.00
2019-04-22T06:06:51.788Z,99808.53
2019-04-22T06:09:27.469Z,99806.61
2019-04-22T06:11:47.670Z,99812.19
2019-04-22T06:14:20.437Z,99809.97
2019-04-22T06:16:59.143Z,99809.29
2019-04-22T06:19:38.536Z,99809.05
2019-04-22T06:22:16.951Z,99805.31
2019-04-22T06:24:27.868Z,99805.75
2019-04-22T06:27:02.325Z,99811.21
2019-04-22T06:29:19.597Z,99809.39
2019-04-22T06:32:10.222Z,99800.94
2019-04-22T06:34:22.375Z,99803.45
2019-04-22T06:36:53.882Z,99809.06
2019-04-22T06:39:21.179Z,99806.72
2019-04-22T06:41:47.660Z,99804.81
2019-04-22T06:44:22.727Z,99806.95
2019-04-22T06:46:47.699Z,99799.72
2019-04-22T06:49:18.726Z,99803.19
2019-04-22T06:51:46.807Z,99798.14
2019-04-22T06:54:14.367Z,99787.89
2019-04-22T06:56:42.737Z,99793.78
2019-04-22T06:59:14.835Z,99789.22
2019-04-22T07:01:45.829Z,99792.95
2019-04-22T07:04:25.103Z,99789.84
2019-04-22T07:06:43.738Z,99788.36
2019-04-22T07:11:43.330Z,99783.48
2019-04-22T07:14:09.384Z,99776.33
2019-04-22T07:16:43.278Z,99772.70
2019-04-22T07:19:13.867Z,99772.87
2019-04-22T07:21:44.093Z,99767.09
2019-04-22T07:24:28.217Z,99759.78
2019-04-22T07:26:44.856Z,99774.13
2019-04-22T07:29:12.119Z,99766.51
2019-04-22T07:31:44.663Z,99762.52
2019-04-22T07:42:10.448Z,99765.25
2019-04-22T07:44:45.073Z,99762.30
2019-04-22T07:52:10.026Z,99770.95
2019-04-22T07:54:49.296Z,99766.67
2019-04-22T07:59:50.077Z,99755.41
2019-04-22T08:02:31.797Z,99746.27
2019-04-22T08:05:07.317Z,99752.41
2019-04-22T08:07:30.189Z,99749.14
2019-04-22T08:12:28.153Z,99741.28
2019-04-22T08:14:53.801Z,99734.97
2019-04-22T08:19:57.413Z,99731.60
2019-04-22T08:22:25.902Z,99724.14
2019-04-22T08:27:22.472Z,99723.77
2019-04-22T08:30:09.448Z,99718.30
2019-04-22T08:32:27.976Z,99714.45
2019-04-22T08:34:56.466Z,99710.41
2019-04-22T08:39:55.063Z,99710.08
2019-04-22T08:42:35.433Z,99712.39
2019-04-22T08:47:31.114Z,99707.96
2019-04-22T08:50:04.656Z,99705.84
2019-04-22T08:52:20.780Z,99699.40
2019-04-22T08:54:55.399Z,99702.25
2019-04-22T08:57:26.020Z,99694.20
2019-04-22T08:59:50.126Z,99690.11
2019-04-22T09:02:25.966Z,99680.84
2019-04-22T09:04:53.418Z,99672.09
2019-04-22T09:07:30.259Z,99671.11
2019-04-22T09:09:53.957Z,99660.44
2019-04-22T09:14:55.345Z,99653.34
2019-04-22T09:17:36.258Z,99652.48
2019-04-22T09:20:11.323Z,99645.22
2019-04-22T09:22:36.278Z,99644.43
2019-04-22T09:25:06.724Z,99642.19
2019-04-22T09:27:48.388Z,99648.74
2019-04-22T09:30:21.787Z,99633.11
2019-04-22T09:32:56.293Z,99634.67
2019-04-22T09:35:15.873Z,99621.02
2019-04-22T09:37:50.399Z,99629.77
2019-04-22T09:40:18.392Z,99629.80
2019-04-22T09:42:50.441Z,99627.91
2019-04-22T09:45:43.643Z,99611.34
2019-04-22T09:48:16.701Z,99617.02
2019-04-22T09:50:43.142Z,99610.73
2019-04-22T09:53:08.446Z,99602.56
2019-04-22T09:55:37.472Z,99589.86
2019-04-22T09:58:09.512Z,99586.03
2019-04-22T10:00:43.004Z,99589.48
2019-04-22T10:03:20.563Z,99582.93
2019-04-22T10:05:48.073Z,99582.02
2019-04-22T10:08:18.739Z,99565.73
2019-04-22T10:10:49.001Z,99566.73
2019-04-22T10:13:12.407Z,99558.37
2019-04-22T10:15:33.694Z,99545.54
2019-04-22T10:18:04.138Z,99548.06
2019-04-22T10:20:32.772Z,99543.62
2019-04-22T10:23:05.444Z,99540.12
2019-04-22T10:25:36.015Z,99532.23
2019-04-22T10:28:08.764Z,99529.39
2019-04-22T10:30:41.751Z,99524.23
2019-04-22T10:33:03.059Z,99518.52
2019-04-22T10:35:15.509Z,99516.05
2019-04-22T10:37:40.580Z,99510.48
2019-04-22T10:40:13.662Z,99506.03
2019-04-22T10:42:43.133Z,99494.27
2019-04-22T10:45:12.389Z,99503.77
2019-04-22T10:47:40.374Z,99495.62
2019-04-22T10:50:10.100Z,99483.25
2019-04-22T10:52:37.381Z,99489.52
2019-04-22T10:55:05.856Z,99480.73
2019-04-22T10:57:33.891Z,99479.47
2019-04-22T11:00:01.017Z,99471.59
2019-04-22T11:02:29.780Z,99478.50
2019-04-22T11:04:59.351Z,99471.57
2019-04-22T11:07:36.195Z,99462.05
2019-04-22T11:10:09.819Z,99462.98
2019-04-22T11:12:29.520Z,99455.86
2019-04-22T11:14:55.787Z,99451.31
2019-04-22T11:17:24.212Z,99442.09
2019-04-22T11:19:53.338Z,99448.83
2019-04-22T11:22:24.488Z,99439.37
2019-04-22T11:24:50.800Z,99414.33
2019-04-22T11:27:18.915Z,99418.00
2019-04-22T11:29:47.952Z,99405.48
2019-04-22T11:32:16.115Z,99421.98
2019-04-22T11:34:43.239Z,99417.89
2019-04-22T11:37:10.540Z,99403.57
2019-04-22T11:39:38.679Z,99410.34
2019-04-22T11:42:05.871Z,99400.08
2019-04-22T11:44:35.309Z,99403.36
2019-04-22T11:47:09.532Z,99397.34
2019-04-22T11:49:36.719Z,99379.19
2019-04-22T11:52:06.586Z,99373.95
2019-04-22T11:54:35.138Z,99386.51
2019-04-22T11:57:12.860Z,99383.24
2019-04-22T11:59:40.751Z,99377.83
2019-04-22T12:02:09.004Z,99377.50
2019-04-22T12:04:38.182Z,99374.55
2019-04-22T12:07:05.890Z,99376.75
2019-04-22T12:09:33.755Z,99370.02
2019-04-22T12:12:00.930Z,99354.09
2019-04-22T12:14:28.010Z,99363.86
2019-04-22T12:16:55.408Z,99358.42
2019-04-22T12:19:27.392Z,99353.56
2019-04-22T12:21:55.172Z,99350.41
2019-04-22T12:24:23.281Z,99345.04
2019-04-22T12:26:52.743Z,99336.66
2019-04-22T12:29:22.744Z,99319.44
2019-04-22T12:31:51.423Z,99326.66
2019-04-22T12:34:19.649Z,99324.28
2019-04-22T12:36:48.751Z,99316.08
2019-04-22T12:39:17.710Z,99319.69
2019-04-22T12:41:46.459Z,99306.33
2019-04-22T12:44:14.995Z,99305.05
2019-04-22T12:46:48.103Z,99302.56
2019-04-22T12:49:18.178Z,99302.75
2019-04-22T12:51:47.383Z,99299.59
2019-04-22T12:54:17.188Z,99295.56
2019-04-22T12:56:48.068Z,99287.50
2019-04-22T12:59:17.579Z,99284.06
2019-04-22T13:01:47.265Z,99290.99
2019-04-22T13:04:19.502Z,99284.61
2019-04-22T13:06:46.096Z,99271.43
2019-04-22T13:09:14.550Z,99279.77
2019-04-22T13:11:44.577Z,99268.11
2019-04-22T13:14:12.781Z,99266.34
2019-04-22T13:16:40.868Z,99260.86
2019-04-22T13:19:12.831Z,99257.06
2019-04-22T13:21:38.525Z,99246.59
2019-04-22T13:24:07.092Z,99236.65
2019-04-22T13:26:35.867Z,99224.25
2019-04-22T13:29:03.355Z,99238.77
2019-04-22T13:31:30.975Z,99232.13
2019-04-22T13:34:13.267Z,99222.86
2019-04-22T13:36:40.082Z,99219.64
2019-04-22T13:39:08.945Z,99215.17
2019-04-22T13:41:46.328Z,99208.33
2019-04-22T13:44:07.071Z,99222.26
2019-04-22T13:46:35.591Z,99226.21
2019-04-22T13:49:38.266Z,99210.72
2019-04-22T13:52:15.260Z,99203.28
2019-04-22T13:56:51.856Z,99205.20
2019-04-22T13:59:15.100Z,99186.75
2019-04-22T14:02:00.818Z,99201.94
2019-04-22T14:04:32.655Z,99195.93
2019-04-22T14:07:00.845Z,99199.68
2019-04-22T14:09:33.910Z,99185.80
2019-04-22T14:12:07.360Z,99189.61
2019-04-22T14:14:39.321Z,99176.13
2019-04-22T14:17:09.021Z,99180.94
2019-04-22T14:19:39.202Z,99175.06
2019-04-22T14:22:09.604Z,99164.41
2019-04-22T14:24:40.499Z,99175.17
2019-04-22T14:27:22.365Z,99161.78
2019-04-22T14:29:39.805Z,99161.00
2019-04-22T14:34:39.007Z,99146.22
2019-04-22T14:37:14.130Z,99147.58
2019-04-22T14:39:41.980Z,99141.38
2019-04-22T14:42:28.278Z,99136.82
2019-04-22T14:44:03.823Z,99161.73
2019-04-22T14:47:34.610Z,99127.95
2019-04-22T14:50:07.998Z,99127.70
2019-04-22T14:52:33.305Z,99124.70
2019-04-22T14:54:53.078Z,99113.38
2019-04-22T14:57:12.964Z,99122.53
2019-04-22T14:59:46.189Z,99107.42
2019-04-22T15:02:14.073Z,99114.48
2019-04-22T15:04:41.572Z,99110.06
2019-04-22T15:07:16.924Z,99108.11
2019-04-22T15:09:46.231Z,99103.88
2019-04-22T15:12:20.549Z,99102.37
2019-04-22T15:14:43.610Z,99102.97
2019-04-22T15:17:33.391Z,99098.08
2019-04-22T15:20:16.049Z,99085.36
2019-04-22T15:22:44.321Z,99081.16
2019-04-22T15:25:42.049Z,99075.08
2019-04-22T15:28:19.601Z,99071.66
2019-04-22T15:30:51.171Z,99067.84
2019-04-22T15:33:19.413Z,99048.51
2019-04-22T15:35:47.237Z,99059.39
2019-04-22T15:38:17.744Z,99068.11
2019-04-22T15:40:46.949Z,99060.88
2019-04-22T15:43:14.970Z,99054.95
2019-04-22T15:45:44.186Z,99062.73
2019-04-22T15:48:14.806Z,99059.19
2019-04-22T15:50:42.549Z,99049.21
2019-04-22T15:53:11.733Z,99041.75
2019-04-22T15:55:39.025Z,99037.88
2019-04-22T15:58:07.959Z,99040.77
2019-04-22T16:00:51.046Z,99045.27
2019-04-22T16:03:08.381Z,99044.64
2019-04-22T16:05:34.180Z,99034.72
2019-04-22T16:08:03.565Z,99034.77
2019-04-22T16:10:31.212Z,99026.91
2019-04-22T16:13:07.459Z,99028.44
2019-04-22T16:15:28.797Z,99023.80
2019-04-22T16:17:56.054Z,99003.79
2019-04-22T16:20:23.328Z,99012.23
2019-04-22T16:23:09.610Z,99015.91
2019-04-22T16:26:03.451Z,99023.97
2019-04-22T16:28:31.373Z,99012.35
2019-04-22T16:30:59.700Z,99014.45
2019-04-22T16:33:27.747Z,99023.85
2019-04-22T16:35:55.098Z,99014.38
2019-04-22T16:38:24.599Z,99012.10
2019-04-22T16:40:52.731Z,99016.98
2019-04-22T16:43:20.443Z,99013.73
2019-04-22T16:45:50.034Z,99014.14
2019-04-22T16:48:19.857Z,99008.19
2019-04-22T16:50:50.645Z,99007.90
2019-04-22T16:53:20.678Z,99002.75
2019-04-22T16:55:50.809Z,99002.15
2019-04-22T16:58:18.916Z,98995.86
2019-04-22T17:00:49.629Z,98989.16
2019-04-22T17:03:52.408Z,98996.97
2019-04-22T17:06:29.923Z,98985.44
2019-04-22T17:08:57.343Z,98986.26
2019-04-22T17:11:27.531Z,98986.75
2019-04-22T17:13:55.164Z,98986.70
2019-04-22T17:16:24.194Z,98985.82
2019-04-22T17:18:54.217Z,98973.52
2019-04-22T17:21:21.803Z,98984.73
2019-04-22T17:23:49.865Z,98980.27
2019-04-22T17:26:18.721Z,98983.74
2019-04-22T17:28:46.290Z,98979.78
2019-04-22T17:31:13.670Z,98976.16
2019-04-22T17:33:41.197Z,98980.13
2019-04-22T17:36:09.328Z,98971.30
2019-04-22T17:38:48.947Z,98977.84
2019-04-22T17:41:20.731Z,98967.55
2019-04-22T17:43:58.865Z,98972.13
2019-04-22T17:46:32.290Z,98974.69
2019-04-22T17:49:16.704Z,98974.69
2019-04-22T17:52:06.166Z,98982.72
2019-04-22T17:54:34.436Z,98974.39
2019-04-22T17:57:02.099Z,98975.31
2019-04-22T17:59:35.951Z,98971.12
2019-04-22T18:01:59.645Z,98983.84
2019-04-22T18:04:12.742Z,98985.25
2019-04-22T18:07:02.912Z,98987.88
2019-04-22T18:09:53.714Z,98978.98
2019-04-22T18:12:04.870Z,98985.45
2019-04-22T18:14:41.696Z,98975.66
2019-04-22T18:17:05.796Z,98985.30
2019-04-22T18:19:29.471Z,98988.72
2019-04-22T18:21:51.625Z,98987.34
2019-04-22T18:24:19.981Z,98987.68
2019-04-22T18:27:18.953Z,98987.12
2019-04-22T18:29:28.093Z,98991.38
2019-04-22T18:31:51.175Z,98992.16
2019-04-22T18:34:25.537Z,98996.20
2019-04-22T18:37:07.712Z,98996.81
2019-04-22T18:39:42.520Z,99000.84
2019-04-22T18:42:05.920Z,99000.14
2019-04-22T18:44:39.849Z,99000.59
2019-04-22T18:47:07.351Z,99000.73
2019-04-22T18:49:37.352Z,99002.44
2019-04-22T18:52:38.000Z,99010.02
2019-04-22T18:55:17.933Z,99007.20
2019-04-22T18:58:16.615Z,99012.59
2019-04-22T19:00:36.230Z,99014.59
2019-04-22T19:03:13.512Z,99012.66
2019-04-22T19:06:02.601Z,99019.17
2019-04-22T19:08:28.826Z,99013.09
2019-04-22T19:11:02.602Z,99023.55
2019-04-22T19:16:09.752Z,99019.28
2019-04-22T19:18:37.921Z,99015.95
2019-04-22T19:21:02.801Z,99019.28
2019-04-22T19:23:28.486Z,99022.58
2019-04-22T19:25:59.096Z,99017.89
2019-04-22T19:28:42.569Z,99017.19
2019-04-22T19:31:13.515Z,99016.20
2019-04-22T19:33:40.679Z,99021.09
2019-04-22T19:36:10.756Z,99022.12
2019-04-22T19:38:30.036Z,99025.25
2019-04-22T19:41:19.761Z,99028.78
2019-04-22T19:43:46.497Z,99023.72
2019-04-22T19:46:13.022Z,99031.45
2019-04-22T19:48:45.498Z,99028.56
2019-04-22T19:51:24.249Z,99023.14
2019-04-22T19:53:47.399Z,99030.09
2019-04-22T19:56:11.552Z,99025.71
2019-04-22T19:58:42.645Z,99023.66
2019-04-22T20:01:44.108Z,99022.55
2019-04-22T20:04:32.641Z,99024.24
2019-04-22T20:07:05.144Z,99022.33
2019-04-22T20:09:35.447Z,99021.48
2019-04-22T20:12:04.534Z,99021.27
2019-04-22T20:14:34.991Z,99021.64
2019-04-22T20:17:02.445Z,99016.17
2019-04-22T20:19:41.470Z,99021.61
2019-04-22T20:22:03.000Z,99021.81
2019-04-22T20:24:23.840Z,99013.44
2019-04-22T20:27:12.378Z,99001.42
2019-04-22T20:29:37.670Z,99009.18
2019-04-22T20:32:05.700Z,99013.77
2019-04-22T20:34:37.973Z,99012.03
2019-04-22T20:37:10.449Z,99013.28
2019-04-22T20:39:40.951Z,99019.19
2019-04-22T20:42:21.305Z,99027.27
2019-04-22T20:44:33.517Z,99028.20
2019-04-22T20:46:55.758Z,99032.02
2019-04-22T20:49:31.063Z,99031.61
2019-04-22T20:52:21.634Z,99027.55
2019-04-22T20:54:32.644Z,99033.81
2019-04-22T20:56:57.721Z,99025.31
2019-04-22T20:59:28.861Z,99030.77
2019-04-22T21:01:57.974Z,99027.33
2019-04-22T21:04:33.535Z,99031.61
2019-04-22T21:07:05.100Z,99031.65
2019-04-22T21:09:38.294Z,99037.91
2019-04-22T21:12:05.133Z,99032.97
2019-04-22T21:14:32.458Z,99032.02
2019-04-22T21:17:08.041Z,99037.91
2019-04-22T21:19:49.739Z,99034.48
2019-04-22T21:22:07.952Z,99035.30
2019-04-22T21:24:34.995Z,99032.04
2019-04-22T21:27:10.319Z,99032.03
2019-04-22T21:29:32.149Z,99036.14
2019-04-22T21:32:01.094Z,99033.35
2019-04-22T21:34:41.391Z,99026.30
2019-04-22T21:37:07.635Z,99023.84
2019-04-22T21:39:29.024Z,99025.17
2019-04-22T21:42:03.380Z,99032.20
2019-04-22T21:44:26.149Z,99028.28
2019-04-22T21:47:04.426Z,99025.98
2019-04-22T21:49:29.620Z,99020.41
2019-04-22T21:52:13.490Z,99015.48
2019-04-22T21:54:28.273Z,99011.23
2019-04-22T21:59:34.675Z,99003.84
2019-04-22T22:02:12.375Z,99004.11
2019-04-22T22:04:36.363Z,98989.56
2019-04-22T22:06:58.932Z,99000.52
2019-04-22T22:09:39.941Z,98996.90
2019-04-22T22:12:02.441Z,98980.20
2019-04-22T22:14:34.844Z,98994.46
2019-04-22T22:16:56.110Z,98991.02
2019-04-22T22:19:35.946Z,98985.77
2019-04-22T22:22:07.849Z,98985.58
2019-04-22T22:24:41.586Z,98977.56
2019-04-22T22:27:01.441Z,98970.52
2019-04-22T22:29:48.054Z,98978.67
2019-04-22T22:32:07.932Z,98984.37
2019-04-22T22:34:28.061Z,98977.81
2019-04-22T22:36:54.404Z,98980.09
2019-04-22T22:39:23.692Z,98989.05
2019-04-22T22:41:39.731Z,98984.14
2019-04-22T22:44:16.398Z,98983.63
2019-04-22T22:46:51.494Z,98985.96
2019-04-22T22:49:29.902Z,98979.86
2019-04-22T22:52:09.780Z,98974.14
2019-04-22T22:54:33.110Z,98976.56
2019-04-22T22:57:01.974Z,98969.97
2019-04-22T22:59:29.937Z,98979.78
2019-04-22T23:01:52.626Z,98970.51
2019-04-22T23:04:29.488Z,98956.36
2019-04-22T23:06:58.248Z,98969.27
2019-04-22T23:09:19.559Z,98954.34
2019-04-22T23:12:03.307Z,98953.72
2019-04-22T23:14:20.856Z,98951.87
2019-04-22T23:16:39.785Z,98956.55
2019-04-22T23:19:04.392Z,98949.70
2019-04-22T23:21:38.816Z,98945.23
2019-04-22T23:24:23.411Z,98938.47
2019-04-22T23:27:03.221Z,98929.14
2019-04-22T23:29:43.050Z,98919.48
2019-04-22T23:32:18.540Z,98928.50
2019-04-22T23:34:58.737Z,98917.84
2019-04-22T23:37:29.016Z,98925.77
2019-04-22T23:40:11.780Z,98914.37
2019-04-22T23:42:41.768Z,98921.72
2019-04-22T23:45:02.030Z,98918.59
2019-04-22T23:47:30.060Z,98918.08
2019-04-22T23:50:14.060Z,98921.78
2019-04-22T23:52:49.003Z,98906.41
2019-04-22T23:55:17.769Z,98918.52
2019-04-22T23:57:46.974Z,98901.70
